createdAt,value
2022-12-28T00:00:14.291Z,1010.21
2022-12-28T00:00:46.776Z,1010.20
2022-12-28T00:01:19.227Z,1010.22
2022-12-28T00:01:51.772Z,1010.20
2022-12-28T00:02:24.281Z,1010.17
2022-12-28T00:02:56.784Z,1010.14
2022-12-28T00:03:29.240Z,1010.15
2022-12-28T00:04:01.848Z,1010.10
2022-12-28T00:04:34.357Z,1010.10
2022-12-28T00:05:06.792Z,1010.08
2022-12-28T00:05:39.276Z,1010.07
2022-12-28T00:06:11.861Z,1010.05
2022-12-28T00:06:44.411Z,1010.03
2022-12-28T00:07:16.860Z,1010.08
2022-12-28T00:07:49.275Z,1010.09
2022-12-28T00:08:21.742Z,1010.01
2022-12-28T00:08:54.246Z,1010.02
2022-12-28T00:09:26.716Z,1010.01
2022-12-28T00:09:59.161Z,1009.98
2022-12-28T00:11:07.751Z,1009.96
2022-12-28T00:11:08.478Z,1009.95
2022-12-28T00:11:36.522Z,1009.99
2022-12-28T00:12:09.052Z,1009.92
2022-12-28T00:12:41.506Z,1009.91
2022-12-28T00:13:13.976Z,1009.93
2022-12-28T00:13:46.433Z,1009.87
2022-12-28T00:14:18.925Z,1009.89
2022-12-28T00:14:51.440Z,1009.86
2022-12-28T00:15:23.939Z,1009.85
2022-12-28T00:15:56.450Z,1009.84
2022-12-28T00:16:28.969Z,1009.81
2022-12-28T00:17:01.412Z,1009.83
2022-12-28T00:17:33.883Z,1009.76
2022-12-28T00:18:06.383Z,1009.76
2022-12-28T00:18:38.949Z,1009.73
2022-12-28T00:19:11.414Z,1009.71
2022-12-28T00:19:43.863Z,1009.63
2022-12-28T00:20:16.383Z,1009.65
2022-12-28T00:20:48.876Z,1009.69
2022-12-28T00:21:21.440Z,1009.66
2022-12-28T00:21:53.955Z,1009.65
2022-12-28T00:22:26.568Z,1009.59
2022-12-28T00:22:59.078Z,1009.63
2022-12-28T00:23:31.692Z,1009.61
2022-12-28T00:24:04.156Z,1009.57
2022-12-28T00:24:36.597Z,1009.58
2022-12-28T00:25:09.070Z,1009.55
2022-12-28T00:25:41.527Z,1009.56
2022-12-28T00:26:14.056Z,1009.57
2022-12-28T00:26:46.581Z,1009.51
2022-12-28T00:27:19.005Z,1009.57
2022-12-28T00:27:51.558Z,1009.54
2022-12-28T00:28:24.025Z,1009.51
2022-12-28T00:29:03.650Z,1009.52
2022-12-28T00:29:29.001Z,1009.55
2022-12-28T00:30:01.415Z,1009.47
2022-12-28T00:30:33.969Z,1009.49
2022-12-28T00:31:06.410Z,1009.49
2022-12-28T00:31:38.893Z,1009.43
2022-12-28T00:32:11.372Z,1009.44
2022-12-28T00:32:43.811Z,1009.46
2022-12-28T00:33:16.274Z,1009.43
2022-12-28T00:33:48.731Z,1009.44
2022-12-28T00:34:21.296Z,1009.42
2022-12-28T00:34:53.833Z,1009.39
2022-12-28T00:35:26.346Z,1009.41
2022-12-28T00:35:58.907Z,1009.39
2022-12-28T00:37:09.530Z,1009.43
2022-12-28T00:37:11.937Z,1009.41
2022-12-28T00:37:36.414Z,1009.42
2022-12-28T00:38:08.908Z,1009.38
2022-12-28T00:38:41.426Z,1009.39
2022-12-28T00:39:13.976Z,1009.41
2022-12-28T00:39:46.495Z,1009.36
2022-12-28T00:40:23.785Z,1009.34
2022-12-28T00:40:51.430Z,1009.29
2022-12-28T00:41:23.985Z,1009.27
2022-12-28T00:41:56.476Z,1009.37
2022-12-28T00:42:28.926Z,1009.34
2022-12-28T00:43:01.390Z,1009.34
2022-12-28T00:43:33.907Z,1009.33
2022-12-28T00:44:06.486Z,1009.30
2022-12-28T00:44:39.005Z,1009.34
2022-12-28T00:45:11.492Z,1009.30
2022-12-28T00:45:44.257Z,1009.32
2022-12-28T00:46:16.685Z,1009.34
2022-12-28T00:46:49.115Z,1009.36
2022-12-28T00:47:21.680Z,1009.34
2022-12-28T00:47:54.176Z,1009.32
2022-12-28T00:48:26.688Z,1009.33
2022-12-28T00:48:59.217Z,1009.34
2022-12-28T00:49:31.686Z,1009.31
2022-12-28T00:50:04.353Z,1009.31
2022-12-28T00:50:36.756Z,1009.35
2022-12-28T00:51:09.225Z,1009.32
2022-12-28T00:51:41.635Z,1009.34
2022-12-28T00:52:14.164Z,1009.32
2022-12-28T00:52:46.669Z,1009.28
2022-12-28T00:53:19.107Z,1009.33
2022-12-28T00:53:51.518Z,1009.27
2022-12-28T00:54:24.016Z,1009.34
2022-12-28T00:54:56.533Z,1009.37
2022-12-28T00:55:29.041Z,1009.31
2022-12-28T00:56:01.549Z,1009.28
2022-12-28T00:56:34.062Z,1009.31
2022-12-28T00:57:06.611Z,1009.33
2022-12-28T00:57:39.106Z,1009.32
2022-12-28T00:58:11.613Z,1009.30
2022-12-28T00:58:44.204Z,1009.33
2022-12-28T00:59:16.655Z,1009.38
2022-12-28T00:59:49.154Z,1009.30
2022-12-28T01:00:21.658Z,1009.30
2022-12-28T01:00:54.222Z,1009.26
2022-12-28T01:01:26.818Z,1009.31
2022-12-28T01:01:59.366Z,1009.28
2022-12-28T01:02:31.766Z,1009.30
2022-12-28T01:03:04.301Z,1009.26
2022-12-28T01:03:36.789Z,1009.30
2022-12-28T01:04:09.249Z,1009.27
2022-12-28T01:04:41.696Z,1009.25
2022-12-28T01:05:14.231Z,1009.28
2022-12-28T01:05:46.776Z,1009.21
2022-12-28T01:06:19.257Z,1009.29
2022-12-28T01:06:51.699Z,1009.27
2022-12-28T01:07:24.203Z,1009.20
2022-12-28T01:07:56.729Z,1009.25
2022-12-28T01:08:29.237Z,1009.26
2022-12-28T01:09:02.329Z,1009.20
2022-12-28T01:09:34.780Z,1009.22
2022-12-28T01:10:07.220Z,1009.28
2022-12-28T01:10:39.702Z,1009.16
2022-12-28T01:11:12.174Z,1009.13
2022-12-28T01:11:44.601Z,1009.06
2022-12-28T01:12:17.144Z,1009.11
2022-12-28T01:12:49.658Z,1009.11
2022-12-28T01:13:22.077Z,1009.08
2022-12-28T01:13:54.525Z,1009.05
2022-12-28T01:14:27.111Z,1009.06
2022-12-28T01:14:59.647Z,1009.08
2022-12-28T01:15:32.203Z,1009.07
2022-12-28T01:16:04.725Z,1009.03
2022-12-28T01:16:37.242Z,1009.07
2022-12-28T01:17:09.638Z,1009.09
2022-12-28T01:17:42.099Z,1009.03
2022-12-28T01:18:14.624Z,1009.02
2022-12-28T01:18:47.124Z,1009.00
2022-12-28T01:19:19.669Z,1008.98
2022-12-28T01:19:54.062Z,1008.97
2022-12-28T01:20:24.785Z,1008.97
2022-12-28T01:20:57.324Z,1008.96
2022-12-28T01:21:29.792Z,1008.93
2022-12-28T01:22:02.296Z,1008.89
2022-12-28T01:22:34.866Z,1008.90
2022-12-28T01:23:07.461Z,1008.90
2022-12-28T01:23:39.971Z,1008.90
2022-12-28T01:24:12.437Z,1008.88
2022-12-28T01:24:44.957Z,1008.81
2022-12-28T01:25:17.478Z,1008.81
2022-12-28T01:25:49.975Z,1008.83
2022-12-28T01:26:22.427Z,1008.80
2022-12-28T01:26:54.918Z,1008.75
2022-12-28T01:27:27.425Z,1008.75
2022-12-28T01:27:59.925Z,1008.71
2022-12-28T01:28:32.449Z,1008.67
2022-12-28T01:29:05.714Z,1008.65
2022-12-28T01:29:38.164Z,1008.72
2022-12-28T01:30:10.641Z,1008.65
2022-12-28T01:30:43.143Z,1008.63
2022-12-28T01:31:15.615Z,1008.60
2022-12-28T01:31:48.112Z,1008.60
2022-12-28T01:32:20.611Z,1008.58
2022-12-28T01:32:53.178Z,1008.57
2022-12-28T01:33:25.656Z,1008.61
2022-12-28T01:33:58.200Z,1008.60
2022-12-28T01:34:30.765Z,1008.60
2022-12-28T01:35:03.288Z,1008.59
2022-12-28T01:35:36.435Z,1008.58
2022-12-28T01:36:08.929Z,1008.58
2022-12-28T01:36:41.465Z,1008.55
2022-12-28T01:37:13.983Z,1008.51
2022-12-28T01:37:46.473Z,1008.53
2022-12-28T01:38:18.942Z,1008.53
2022-12-28T01:38:51.405Z,1008.54
2022-12-28T01:39:23.903Z,1008.51
2022-12-28T01:39:56.361Z,1008.52
2022-12-28T01:40:28.908Z,1008.53
2022-12-28T01:41:01.405Z,1008.52
2022-12-28T01:41:33.943Z,1008.55
2022-12-28T01:42:06.625Z,1008.55
2022-12-28T01:42:39.069Z,1008.50
2022-12-28T01:43:11.636Z,1008.51
2022-12-28T01:43:44.167Z,1008.51
2022-12-28T01:44:16.639Z,1008.47
2022-12-28T01:44:49.127Z,1008.48
2022-12-28T01:45:22.475Z,1008.46
2022-12-28T01:45:54.999Z,1008.46
2022-12-28T01:46:27.536Z,1008.47
2022-12-28T01:47:00.042Z,1008.51
2022-12-28T01:47:32.524Z,1008.49
2022-12-28T01:48:04.997Z,1008.48
2022-12-28T01:48:37.459Z,1008.46
2022-12-28T01:49:10.009Z,1008.44
2022-12-28T01:49:42.535Z,1008.41
2022-12-28T01:50:14.986Z,1008.40
2022-12-28T01:50:47.424Z,1008.42
2022-12-28T01:51:19.950Z,1008.42
2022-12-28T01:51:52.444Z,1008.41
2022-12-28T01:52:24.908Z,1008.40
2022-12-28T01:52:57.603Z,1008.38
2022-12-28T01:53:30.102Z,1008.38
2022-12-28T01:54:02.624Z,1008.27
2022-12-28T01:54:35.072Z,1008.32
2022-12-28T01:55:07.522Z,1008.30
2022-12-28T01:55:39.990Z,1008.24
2022-12-28T01:56:12.451Z,1008.25
2022-12-28T01:56:44.897Z,1008.30
2022-12-28T01:57:17.414Z,1008.23
2022-12-28T01:57:49.951Z,1008.26
2022-12-28T01:58:22.463Z,1008.28
2022-12-28T01:58:54.954Z,1008.29
2022-12-28T01:59:27.433Z,1008.26
2022-12-28T01:59:59.951Z,1008.21
2022-12-28T02:00:32.467Z,1008.18
2022-12-28T02:01:05.030Z,1008.19
2022-12-28T02:01:37.480Z,1008.14
2022-12-28T02:02:10.027Z,1008.10
2022-12-28T02:02:42.475Z,1008.08
2022-12-28T02:03:14.908Z,1008.08
2022-12-28T02:03:47.327Z,1008.08
2022-12-28T02:04:19.769Z,1008.05
2022-12-28T02:04:52.252Z,1008.08
2022-12-28T02:05:24.690Z,1008.04
2022-12-28T02:05:57.169Z,1008.07
2022-12-28T02:06:29.696Z,1007.99
2022-12-28T02:07:02.190Z,1008.07
2022-12-28T02:07:34.695Z,1008.03
2022-12-28T02:08:07.288Z,1008.01
2022-12-28T02:08:39.776Z,1007.97
2022-12-28T02:09:12.290Z,1007.98
2022-12-28T02:09:44.803Z,1008.02
2022-12-28T02:10:42.240Z,1008.00
2022-12-28T02:10:49.829Z,1007.98
2022-12-28T02:11:22.270Z,1007.95
2022-12-28T02:11:54.798Z,1007.93
2022-12-28T02:12:27.290Z,1007.90
2022-12-28T02:12:59.779Z,1007.91
2022-12-28T02:13:32.189Z,1007.90
2022-12-28T02:14:04.659Z,1007.87
2022-12-28T02:14:37.127Z,1007.87
2022-12-28T02:15:09.587Z,1007.86
2022-12-28T02:15:42.183Z,1007.82
2022-12-28T02:16:14.640Z,1007.79
2022-12-28T02:16:47.261Z,1007.85
2022-12-28T02:17:19.632Z,1007.73
2022-12-28T02:17:52.089Z,1007.75
2022-12-28T02:18:24.567Z,1007.72
2022-12-28T02:18:57.006Z,1007.74
2022-12-28T02:19:29.508Z,1007.69
2022-12-28T02:20:02.038Z,1007.67
2022-12-28T02:20:34.564Z,1007.64
2022-12-28T02:21:07.168Z,1007.64
2022-12-28T02:21:39.687Z,1007.61
2022-12-28T02:22:12.197Z,1007.59
2022-12-28T02:22:44.639Z,1007.59
2022-12-28T02:23:17.135Z,1007.59
2022-12-28T02:23:49.717Z,1007.58
2022-12-28T02:24:22.214Z,1007.57
2022-12-28T02:25:11.348Z,1007.55
2022-12-28T02:25:27.193Z,1007.55
2022-12-28T02:25:59.675Z,1007.52
2022-12-28T02:26:32.109Z,1007.50
2022-12-28T02:27:04.548Z,1007.45
2022-12-28T02:27:37.012Z,1007.49
2022-12-28T02:28:09.486Z,1007.43
2022-12-28T02:28:42.030Z,1007.41
2022-12-28T02:29:14.532Z,1007.39
2022-12-28T02:29:47.044Z,1007.38
2022-12-28T02:30:19.547Z,1007.39
2022-12-28T02:30:52.003Z,1007.39
2022-12-28T02:31:24.453Z,1007.40
2022-12-28T02:31:56.964Z,1007.37
2022-12-28T02:32:29.483Z,1007.37
2022-12-28T02:33:02.025Z,1007.33
2022-12-28T02:33:34.680Z,1007.31
2022-12-28T02:34:07.127Z,1007.33
2022-12-28T02:34:39.641Z,1007.30
2022-12-28T02:35:12.193Z,1007.34
2022-12-28T02:35:44.670Z,1007.33
2022-12-28T02:36:18.671Z,1007.33
2022-12-28T02:36:49.674Z,1007.38
2022-12-28T02:37:22.213Z,1007.33
2022-12-28T02:37:54.755Z,1007.30
2022-12-28T02:38:27.276Z,1007.31
2022-12-28T02:38:59.781Z,1007.23
2022-12-28T02:39:32.290Z,1007.19
2022-12-28T02:40:04.826Z,1007.14
2022-12-28T02:40:37.310Z,1007.17
2022-12-28T02:41:09.744Z,1007.10
2022-12-28T02:41:42.250Z,1007.15
2022-12-28T02:42:14.770Z,1007.13
2022-12-28T02:42:47.221Z,1007.15
2022-12-28T02:43:19.671Z,1007.21
2022-12-28T02:43:52.181Z,1007.07
2022-12-28T02:44:24.671Z,1007.04
2022-12-28T02:44:57.272Z,1007.07
2022-12-28T02:45:29.827Z,1007.09
2022-12-28T02:46:02.512Z,1007.07
2022-12-28T02:46:34.893Z,1007.10
2022-12-28T02:47:07.501Z,1007.08
2022-12-28T02:47:39.947Z,1007.00
2022-12-28T02:48:12.506Z,1007.00
2022-12-28T02:48:44.960Z,1007.01
2022-12-28T02:49:17.411Z,1006.95
2022-12-28T02:49:49.919Z,1006.93
2022-12-28T02:50:22.986Z,1006.96
2022-12-28T02:50:55.464Z,1006.92
2022-12-28T02:51:27.923Z,1006.89
2022-12-28T02:52:00.448Z,1006.89
2022-12-28T02:52:32.923Z,1006.92
2022-12-28T02:53:05.340Z,1006.89
2022-12-28T02:53:37.823Z,1006.88
2022-12-28T02:54:10.268Z,1006.85
2022-12-28T02:54:42.790Z,1006.83
2022-12-28T02:55:16.176Z,1006.88
2022-12-28T02:55:48.566Z,1006.84
2022-12-28T02:56:21.077Z,1006.89
2022-12-28T02:56:53.632Z,1006.82
2022-12-28T02:57:26.152Z,1006.88
2022-12-28T02:57:58.653Z,1006.81
2022-12-28T02:58:31.363Z,1006.83
2022-12-28T02:59:03.938Z,1006.76
2022-12-28T02:59:36.401Z,1006.84
2022-12-28T03:00:08.856Z,1006.82
2022-12-28T03:00:41.365Z,1006.81
2022-12-28T03:01:13.997Z,1006.71
2022-12-28T03:01:46.487Z,1006.72
2022-12-28T03:02:19.073Z,1006.69
2022-12-28T03:02:51.492Z,1006.73
2022-12-28T03:03:23.929Z,1006.77
2022-12-28T03:03:56.386Z,1006.75
2022-12-28T03:04:28.818Z,1006.76
2022-12-28T03:05:01.346Z,1006.70
2022-12-28T03:05:33.882Z,1006.72
2022-12-28T03:06:06.433Z,1006.69
2022-12-28T03:06:38.890Z,1006.69
2022-12-28T03:07:11.376Z,1006.59
2022-12-28T03:07:43.886Z,1006.61
2022-12-28T03:08:16.410Z,1006.62
2022-12-28T03:08:48.986Z,1006.58
2022-12-28T03:09:21.450Z,1006.66
2022-12-28T03:09:54.070Z,1006.58
2022-12-28T03:10:26.577Z,1006.58
2022-12-28T03:10:59.113Z,1006.61
2022-12-28T03:11:31.646Z,1006.60
2022-12-28T03:12:04.206Z,1006.58
2022-12-28T03:12:36.689Z,1006.60
2022-12-28T03:13:09.168Z,1006.57
2022-12-28T03:13:41.719Z,1006.70
2022-12-28T03:14:14.291Z,1006.65
2022-12-28T03:14:46.804Z,1006.65
2022-12-28T03:15:19.334Z,1006.62
2022-12-28T03:15:51.784Z,1006.65
2022-12-28T03:16:24.283Z,1006.57
2022-12-28T03:16:56.755Z,1006.57
2022-12-28T03:17:29.218Z,1006.55
2022-12-28T03:18:01.825Z,1006.51
2022-12-28T03:18:34.319Z,1006.55
2022-12-28T03:19:06.832Z,1006.56
2022-12-28T03:19:39.358Z,1006.52
2022-12-28T03:20:12.080Z,1006.54
2022-12-28T03:20:44.517Z,1006.54
2022-12-28T03:21:16.978Z,1006.58
2022-12-28T03:21:49.548Z,1006.53
2022-12-28T03:22:22.029Z,1006.56
2022-12-28T03:22:54.570Z,1006.45
2022-12-28T03:23:27.098Z,1006.48
2022-12-28T03:23:59.620Z,1006.50
2022-12-28T03:24:32.153Z,1006.46
2022-12-28T03:25:04.787Z,1006.46
2022-12-28T03:25:37.286Z,1006.43
2022-12-28T03:26:09.798Z,1006.44
2022-12-28T03:26:42.302Z,1006.42
2022-12-28T03:27:14.768Z,1006.42
2022-12-28T03:27:47.314Z,1006.42
2022-12-28T03:28:19.858Z,1006.45
2022-12-28T03:28:52.386Z,1006.37
2022-12-28T03:29:24.914Z,1006.37
2022-12-28T03:29:57.450Z,1006.42
2022-12-28T03:30:29.960Z,1006.41
2022-12-28T03:31:02.509Z,1006.34
2022-12-28T03:31:35.038Z,1006.34
2022-12-28T03:32:07.535Z,1006.33
2022-12-28T03:32:40.042Z,1006.31
2022-12-28T03:33:12.559Z,1006.31
2022-12-28T03:33:45.040Z,1006.22
2022-12-28T03:34:17.585Z,1006.17
2022-12-28T03:34:50.036Z,1006.24
2022-12-28T03:35:22.581Z,1006.15
2022-12-28T03:35:55.082Z,1006.16
2022-12-28T03:36:27.611Z,1006.15
2022-12-28T03:37:00.083Z,1006.17
2022-12-28T03:37:32.589Z,1006.15
2022-12-28T03:38:05.117Z,1006.15
2022-12-28T03:38:37.652Z,1006.18
2022-12-28T03:39:10.160Z,1006.13
2022-12-28T03:39:42.678Z,1006.11
2022-12-28T03:40:15.247Z,1006.13
2022-12-28T03:40:47.795Z,1006.17
2022-12-28T03:41:20.262Z,1006.16
2022-12-28T03:41:52.760Z,1006.15
2022-12-28T03:42:25.240Z,1006.13
2022-12-28T03:42:57.691Z,1006.08
2022-12-28T03:43:30.166Z,1006.10
2022-12-28T03:44:02.612Z,1006.02
2022-12-28T03:44:35.141Z,1006.02
2022-12-28T03:45:07.652Z,1005.98
2022-12-28T03:45:45.669Z,1005.91
2022-12-28T03:46:12.640Z,1005.97
2022-12-28T03:46:45.086Z,1006.00
2022-12-28T03:47:17.572Z,1005.98
2022-12-28T03:47:50.074Z,1005.99
2022-12-28T03:48:22.598Z,1005.97
2022-12-28T03:48:55.055Z,1005.89
2022-12-28T03:49:27.619Z,1005.95
2022-12-28T03:50:00.207Z,1005.91
2022-12-28T03:50:32.679Z,1005.90
2022-12-28T03:51:05.218Z,1005.90
2022-12-28T03:51:37.757Z,1005.91
2022-12-28T03:52:10.273Z,1005.93
2022-12-28T03:52:42.809Z,1005.90
2022-12-28T03:53:15.399Z,1005.93
2022-12-28T03:53:47.889Z,1005.87
2022-12-28T03:54:20.356Z,1005.86
2022-12-28T03:54:52.917Z,1005.84
2022-12-28T03:55:25.475Z,1005.85
2022-12-28T03:55:58.014Z,1005.84
2022-12-28T03:56:30.523Z,1005.83
2022-12-28T03:57:02.987Z,1005.81
2022-12-28T03:57:35.476Z,1005.86
2022-12-28T03:58:08.003Z,1005.83
2022-12-28T03:58:40.475Z,1005.81
2022-12-28T03:59:12.924Z,1005.79
2022-12-28T03:59:45.570Z,1005.82
2022-12-28T04:00:18.092Z,1005.78
2022-12-28T04:00:50.564Z,1005.79
2022-12-28T04:01:23.911Z,1005.78
2022-12-28T04:01:56.550Z,1005.79
2022-12-28T04:02:29.001Z,1005.83
2022-12-28T04:03:01.515Z,1005.79
2022-12-28T04:03:34.053Z,1005.79
2022-12-28T04:04:06.530Z,1005.79
2022-12-28T04:04:39.060Z,1005.80
2022-12-28T04:05:11.578Z,1005.80
2022-12-28T04:05:44.107Z,1005.80
2022-12-28T04:06:16.662Z,1005.73
2022-12-28T04:06:49.169Z,1005.75
2022-12-28T04:07:21.685Z,1005.70
2022-12-28T04:07:54.318Z,1005.74
2022-12-28T04:08:26.754Z,1005.69
2022-12-28T04:08:59.204Z,1005.74
2022-12-28T04:09:31.672Z,1005.78
2022-12-28T04:10:04.119Z,1005.77
2022-12-28T04:10:36.607Z,1005.75
2022-12-28T04:11:09.043Z,1005.74
2022-12-28T04:11:41.603Z,1005.69
2022-12-28T04:12:14.172Z,1005.69
2022-12-28T04:12:46.740Z,1005.68
2022-12-28T04:13:19.212Z,1005.66
2022-12-28T04:13:51.769Z,1005.69
2022-12-28T04:14:24.337Z,1005.62
2022-12-28T04:14:56.784Z,1005.62
2022-12-28T04:15:29.231Z,1005.61
2022-12-28T04:16:01.740Z,1005.66
2022-12-28T04:16:34.165Z,1005.69
2022-12-28T04:17:06.599Z,1005.63
2022-12-28T04:17:39.064Z,1005.61
2022-12-28T04:18:11.577Z,1005.68
2022-12-28T04:18:44.084Z,1005.60
2022-12-28T04:19:16.695Z,1005.58
2022-12-28T04:19:49.252Z,1005.60
2022-12-28T04:20:21.747Z,1005.60
2022-12-28T04:20:54.175Z,1005.63
2022-12-28T04:21:26.879Z,1005.59
2022-12-28T04:21:59.448Z,1005.59
2022-12-28T04:22:31.970Z,1005.62
2022-12-28T04:23:04.499Z,1005.56
2022-12-28T04:23:37.011Z,1005.57
2022-12-28T04:24:09.583Z,1005.52
2022-12-28T04:24:42.132Z,1005.55
2022-12-28T04:25:14.679Z,1005.52
2022-12-28T04:25:47.278Z,1005.58
2022-12-28T04:26:19.841Z,1005.54
2022-12-28T04:26:52.295Z,1005.56
2022-12-28T04:27:24.937Z,1005.51
2022-12-28T04:27:57.467Z,1005.53
2022-12-28T04:28:29.957Z,1005.53
2022-12-28T04:29:02.529Z,1005.49
2022-12-28T04:29:35.085Z,1005.49
2022-12-28T04:30:07.528Z,1005.52
2022-12-28T04:30:40.015Z,1005.51
2022-12-28T04:31:12.561Z,1005.49
2022-12-28T04:31:45.011Z,1005.47
2022-12-28T04:32:17.486Z,1005.47
2022-12-28T04:32:49.992Z,1005.50
2022-12-28T04:33:22.450Z,1005.52
2022-12-28T04:33:54.962Z,1005.45
2022-12-28T04:34:27.504Z,1005.49
2022-12-28T04:35:00.071Z,1005.49
2022-12-28T04:35:32.572Z,1005.39
2022-12-28T04:36:05.107Z,1005.43
2022-12-28T04:36:37.605Z,1005.39
2022-12-28T04:37:10.139Z,1005.38
2022-12-28T04:37:42.675Z,1005.38
2022-12-28T04:38:15.134Z,1005.34
2022-12-28T04:38:47.594Z,1005.32
2022-12-28T04:39:20.100Z,1005.34
2022-12-28T04:39:55.174Z,1005.34
2022-12-28T04:40:25.098Z,1005.30
2022-12-28T04:40:57.543Z,1005.31
2022-12-28T04:41:30.067Z,1005.33
2022-12-28T04:42:02.561Z,1005.29
2022-12-28T04:42:35.083Z,1005.31
2022-12-28T04:43:07.607Z,1005.33
2022-12-28T04:43:40.153Z,1005.36
2022-12-28T04:44:12.628Z,1005.37
2022-12-28T04:44:45.124Z,1005.27
2022-12-28T04:45:21.900Z,1005.33
2022-12-28T04:45:50.112Z,1005.31
2022-12-28T04:46:22.638Z,1005.25
2022-12-28T04:46:55.192Z,1005.25
2022-12-28T04:47:27.635Z,1005.20
2022-12-28T04:48:00.148Z,1005.26
2022-12-28T04:48:32.681Z,1005.17
2022-12-28T04:49:05.203Z,1005.21
2022-12-28T04:49:37.701Z,1005.22
2022-12-28T04:50:10.151Z,1005.18
2022-12-28T04:50:42.611Z,1005.13
2022-12-28T04:51:15.167Z,1005.17
2022-12-28T04:51:47.648Z,1005.13
2022-12-28T04:52:20.165Z,1005.14
2022-12-28T04:52:52.689Z,1005.13
2022-12-28T04:53:25.187Z,1005.13
2022-12-28T04:53:57.663Z,1005.09
2022-12-28T04:54:30.154Z,1005.14
2022-12-28T04:55:02.727Z,1005.09
2022-12-28T04:55:35.430Z,1005.14
2022-12-28T04:56:07.884Z,1005.08
2022-12-28T04:56:40.358Z,1005.13
2022-12-28T04:57:12.858Z,1005.14
2022-12-28T04:57:45.381Z,1005.13
2022-12-28T04:58:17.892Z,1005.17
2022-12-28T04:58:50.418Z,1005.12
2022-12-28T04:59:22.905Z,1005.11
2022-12-28T04:59:55.458Z,1005.10
2022-12-28T05:00:28.048Z,1005.11
2022-12-28T05:01:00.850Z,1005.05
2022-12-28T05:01:33.378Z,1005.06
2022-12-28T05:02:05.932Z,1004.97
2022-12-28T05:02:38.432Z,1005.04
2022-12-28T05:03:11.178Z,1005.05
2022-12-28T05:03:43.395Z,1005.04
2022-12-28T05:04:15.834Z,1005.05
2022-12-28T05:04:48.299Z,1005.02
2022-12-28T05:05:20.850Z,1005.06
2022-12-28T05:05:53.381Z,1005.03
2022-12-28T05:06:25.864Z,1005.02
2022-12-28T05:06:58.344Z,1005.03
2022-12-28T05:07:30.799Z,1005.05
2022-12-28T05:08:03.280Z,1005.09
2022-12-28T05:08:35.758Z,1005.05
2022-12-28T05:09:08.277Z,1005.02
2022-12-28T05:09:40.803Z,1005.05
2022-12-28T05:10:13.285Z,1005.04
2022-12-28T05:10:45.802Z,1005.02
2022-12-28T05:11:18.297Z,1005.08
2022-12-28T05:11:50.757Z,1005.07
2022-12-28T05:12:23.273Z,1005.05
2022-12-28T05:12:55.803Z,1005.10
2022-12-28T05:13:35.387Z,1005.00
2022-12-28T05:14:07.837Z,1004.98
2022-12-28T05:14:40.363Z,1005.06
2022-12-28T05:15:12.845Z,1005.03
2022-12-28T05:15:45.377Z,1005.04
2022-12-28T05:16:17.957Z,1005.10
2022-12-28T05:16:50.379Z,1005.11
2022-12-28T05:17:22.838Z,1005.06
2022-12-28T05:17:55.263Z,1005.12
2022-12-28T05:18:27.737Z,1005.07
2022-12-28T05:19:00.191Z,1005.09
2022-12-28T05:19:32.713Z,1005.17
2022-12-28T05:20:05.238Z,1005.10
2022-12-28T05:20:37.774Z,1005.05
2022-12-28T05:21:10.291Z,1005.02
2022-12-28T05:21:42.815Z,1005.08
2022-12-28T05:22:15.308Z,1005.02
2022-12-28T05:22:47.801Z,1005.06
2022-12-28T05:23:20.273Z,1005.07
2022-12-28T05:23:52.714Z,1004.99
2022-12-28T05:24:25.188Z,1004.99
2022-12-28T05:24:57.628Z,1004.96
2022-12-28T05:25:30.150Z,1005.00
2022-12-28T05:26:02.641Z,1005.00
2022-12-28T05:26:35.219Z,1005.03
2022-12-28T05:27:07.651Z,1004.99
2022-12-28T05:27:40.102Z,1005.02
2022-12-28T05:28:12.587Z,1005.06
2022-12-28T05:28:45.040Z,1004.96
2022-12-28T05:29:17.487Z,1005.01
2022-12-28T05:29:49.934Z,1004.95
2022-12-28T05:30:22.477Z,1004.98
2022-12-28T05:30:54.998Z,1005.01
2022-12-28T05:31:27.617Z,1004.98
2022-12-28T05:32:00.057Z,1004.98
2022-12-28T05:32:32.515Z,1004.96
2022-12-28T05:33:05.035Z,1005.01
2022-12-28T05:33:37.504Z,1004.98
2022-12-28T05:34:09.959Z,1004.97
2022-12-28T05:34:42.463Z,1004.98
2022-12-28T05:35:14.962Z,1004.96
2022-12-28T05:35:47.480Z,1004.93
2022-12-28T05:36:19.996Z,1004.97
2022-12-28T05:36:52.439Z,1004.95
2022-12-28T05:37:24.945Z,1004.92
2022-12-28T05:37:57.455Z,1004.98
2022-12-28T05:38:29.973Z,1005.00
2022-12-28T05:39:02.475Z,1004.94
2022-12-28T05:39:34.978Z,1004.96
2022-12-28T05:40:07.433Z,1004.95
2022-12-28T05:40:39.891Z,1004.96
2022-12-28T05:41:12.433Z,1005.04
2022-12-28T05:41:44.944Z,1005.03
2022-12-28T05:42:17.446Z,1005.01
2022-12-28T05:42:51.662Z,1005.01
2022-12-28T05:43:22.373Z,1005.01
2022-12-28T05:43:54.837Z,1004.97
2022-12-28T05:44:27.332Z,1004.98
2022-12-28T05:44:59.860Z,1004.98
2022-12-28T05:45:32.381Z,1004.95
2022-12-28T05:46:04.848Z,1004.96
2022-12-28T05:46:37.406Z,1004.91
2022-12-28T05:47:09.979Z,1005.02
2022-12-28T05:47:42.414Z,1004.89
2022-12-28T05:48:14.918Z,1004.96
2022-12-28T05:48:47.382Z,1004.88
2022-12-28T05:49:19.818Z,1004.94
2022-12-28T05:49:52.346Z,1004.90
2022-12-28T05:50:24.792Z,1004.92
2022-12-28T05:50:57.341Z,1004.97
2022-12-28T05:51:29.870Z,1004.96
2022-12-28T05:52:02.463Z,1004.88
2022-12-28T05:52:35.001Z,1004.86
2022-12-28T05:53:07.499Z,1004.90
2022-12-28T05:53:40.049Z,1004.93
2022-12-28T05:54:12.541Z,1004.95
2022-12-28T05:54:45.021Z,1005.02
2022-12-28T05:55:17.469Z,1004.95
2022-12-28T05:55:49.899Z,1004.91
2022-12-28T05:56:22.358Z,1004.92
2022-12-28T05:56:54.822Z,1004.90
2022-12-28T05:57:27.405Z,1004.88
2022-12-28T05:57:59.905Z,1004.83
2022-12-28T05:58:32.418Z,1004.82
2022-12-28T05:59:04.944Z,1004.84
2022-12-28T05:59:37.479Z,1004.83
2022-12-28T06:00:09.987Z,1004.85
2022-12-28T06:00:42.458Z,1004.84
2022-12-28T06:01:14.989Z,1004.80
2022-12-28T06:01:47.545Z,1004.83
2022-12-28T06:02:24.563Z,1004.83
2022-12-28T06:02:52.492Z,1004.87
2022-12-28T06:03:24.996Z,1004.78
2022-12-28T06:03:57.359Z,1004.80
2022-12-28T06:04:29.798Z,1004.82
2022-12-28T06:05:02.314Z,1004.79
2022-12-28T06:05:34.908Z,1004.84
2022-12-28T06:06:07.411Z,1004.83
2022-12-28T06:06:39.885Z,1004.84
2022-12-28T06:07:12.343Z,1004.73
2022-12-28T06:07:44.949Z,1004.84
2022-12-28T06:08:21.035Z,1004.81
2022-12-28T06:08:49.930Z,1004.79
2022-12-28T06:09:22.379Z,1004.76
2022-12-28T06:09:54.883Z,1004.70
2022-12-28T06:10:27.386Z,1004.76
2022-12-28T06:10:59.874Z,1004.76
2022-12-28T06:11:32.394Z,1004.68
2022-12-28T06:12:04.933Z,1004.66
2022-12-28T06:12:37.375Z,1004.63
2022-12-28T06:13:09.847Z,1004.59
2022-12-28T06:13:42.372Z,1004.66
2022-12-28T06:14:14.876Z,1004.59
2022-12-28T06:14:47.304Z,1004.69
2022-12-28T06:15:19.741Z,1004.64
2022-12-28T06:15:52.231Z,1004.64
2022-12-28T06:16:24.792Z,1004.67
2022-12-28T06:16:57.286Z,1004.65
2022-12-28T06:17:29.676Z,1004.64
2022-12-28T06:18:02.296Z,1004.64
2022-12-28T06:18:34.787Z,1004.68
2022-12-28T06:19:07.310Z,1004.58
2022-12-28T06:19:39.839Z,1004.60
2022-12-28T06:20:12.336Z,1004.59
2022-12-28T06:20:44.924Z,1004.61
2022-12-28T06:21:17.453Z,1004.58
2022-12-28T06:21:49.976Z,1004.59
2022-12-28T06:22:22.453Z,1004.56
2022-12-28T06:22:54.988Z,1004.62
2022-12-28T06:23:27.506Z,1004.56
2022-12-28T06:23:59.975Z,1004.60
2022-12-28T06:24:32.459Z,1004.56
2022-12-28T06:25:04.921Z,1004.56
2022-12-28T06:25:37.528Z,1004.60
2022-12-28T06:26:09.967Z,1004.62
2022-12-28T06:26:42.476Z,1004.59
2022-12-28T06:27:14.943Z,1004.55
2022-12-28T06:27:47.382Z,1004.57
2022-12-28T06:28:19.863Z,1004.64
2022-12-28T06:28:52.318Z,1004.58
2022-12-28T06:29:24.826Z,1004.59
2022-12-28T06:29:57.344Z,1004.55
2022-12-28T06:30:29.865Z,1004.56
2022-12-28T06:31:02.406Z,1004.54
2022-12-28T06:31:35.111Z,1004.56
2022-12-28T06:32:07.464Z,1004.54
2022-12-28T06:32:39.935Z,1004.63
2022-12-28T06:33:12.388Z,1004.58